sensor_id;sensor_type;location;lat;lon;timestamp;P1;durP1;ratioP1;P2;durP2;ratioP2
8716;SDS011;4395;48.554;8.820;2024-01-06T00:00:48;5.20;;;2.38;;
8716;SDS011;4395;48.554;8.820;2024-01-06T00:02:51;3.00;;;2.60;;
8716;SDS011;4395;48.554;8.820;2024-01-06T00:04:54;4.78;;;2.70;;
8716;SDS011;4395;48.554;8.820;2024-01-06T00:06:57;3.55;;;2.53;;
8716;SDS011;4395;48.554;8.820;2024-01-06T00:08:59;3.80;;;2.20;;
8716;SDS011;4395;48.554;8.820;2024-01-06T00:11:02;3.78;;;2.45;;
8716;SDS011;4395;48.554;8.820;2024-01-06T00:13:05;4.05;;;2.63;;
8716;SDS011;4395;48.554;8.820;2024-01-06T00:15:08;3.75;;;2.33;;
8716;SDS011;4395;48.554;8.820;2024-01-06T00:17:12;3.25;;;2.47;;
8716;SDS011;4395;48.554;8.820;2024-01-06T00:19:14;5.18;;;3.08;;
8716;SDS011;4395;48.554;8.820;2024-01-06T00:21:19;8.75;;;4.40;;
8716;SDS011;4395;48.554;8.820;2024-01-06T00:23:23;10.98;;;6.28;;
8716;SDS011;4395;48.554;8.820;2024-01-06T00:25:25;4.75;;;3.72;;
8716;SDS011;4395;48.554;8.820;2024-01-06T00:27:28;6.05;;;3.72;;
8716;SDS011;4395;48.554;8.820;2024-01-06T00:29:30;6.38;;;3.22;;
8716;SDS011;4395;48.554;8.820;2024-01-06T00:31:33;4.78;;;3.17;;
8716;SDS011;4395;48.554;8.820;2024-01-06T00:33:36;4.22;;;3.30;;
8716;SDS011;4395;48.554;8.820;2024-01-06T00:35:38;4.20;;;3.00;;
8716;SDS011;4395;48.554;8.820;2024-01-06T00:37:40;4.50;;;3.10;;
8716;SDS011;4395;48.554;8.820;2024-01-06T00:39:44;3.90;;;2.60;;
8716;SDS011;4395;48.554;8.820;2024-01-06T00:41:47;2.97;;;2.67;;
8716;SDS011;4395;48.554;8.820;2024-01-06T00:43:50;4.57;;;2.95;;
8716;SDS011;4395;48.554;8.820;2024-01-06T00:45:53;5.13;;;3.13;;
8716;SDS011;4395;48.554;8.820;2024-01-06T00:47:55;4.97;;;3.40;;
8716;SDS011;4395;48.554;8.820;2024-01-06T00:49:58;5.50;;;3.17;;
8716;SDS011;4395;48.554;8.820;2024-01-06T00:52:01;3.35;;;2.97;;
8716;SDS011;4395;48.554;8.820;2024-01-06T00:54:04;4.93;;;3.25;;
8716;SDS011;4395;48.554;8.820;2024-01-06T00:56:08;7.10;;;3.33;;
8716;SDS011;4395;48.554;8.820;2024-01-06T00:58:11;4.65;;;3.03;;
8716;SDS011;4395;48.554;8.820;2024-01-06T01:00:14;3.95;;;3.50;;
8716;SDS011;4395;48.554;8.820;2024-01-06T01:02:17;6.13;;;3.97;;
8716;SDS011;4395;48.554;8.820;2024-01-06T01:04:20;4.82;;;2.83;;
8716;SDS011;4395;48.554;8.820;2024-01-06T01:06:22;11.63;;;7.40;;
8716;SDS011;4395;48.554;8.820;2024-01-06T01:08:24;25.63;;;15.13;;
8716;SDS011;4395;48.554;8.820;2024-01-06T01:10:26;7.45;;;4.38;;
8716;SDS011;4395;48.554;8.820;2024-01-06T01:12:30;10.27;;;6.47;;
8716;SDS011;4395;48.554;8.820;2024-01-06T01:14:33;5.75;;;3.90;;
8716;SDS011;4395;48.554;8.820;2024-01-06T01:16:36;4.10;;;3.00;;
8716;SDS011;4395;48.554;8.820;2024-01-06T01:18:38;4.40;;;3.40;;
8716;SDS011;4395;48.554;8.820;2024-01-06T01:20:41;4.22;;;3.28;;
8716;SDS011;4395;48.554;8.820;2024-01-06T01:22:43;8.35;;;3.00;;
8716;SDS011;4395;48.554;8.820;2024-01-06T01:24:46;3.70;;;2.67;;
8716;SDS011;4395;48.554;8.820;2024-01-06T01:26:49;3.53;;;2.80;;
8716;SDS011;4395;48.554;8.820;2024-01-06T01:28:53;6.70;;;2.85;;
8716;SDS011;4395;48.554;8.820;2024-01-06T01:30:56;4.07;;;2.80;;
8716;SDS011;4395;48.554;8.820;2024-01-06T01:32:59;4.75;;;2.78;;
8716;SDS011;4395;48.554;8.820;2024-01-06T01:35:02;4.40;;;2.92;;
8716;SDS011;4395;48.554;8.820;2024-01-06T01:37:05;3.53;;;2.70;;
8716;SDS011;4395;48.554;8.820;2024-01-06T01:39:08;4.53;;;2.90;;
8716;SDS011;4395;48.554;8.820;2024-01-06T01:41:11;3.50;;;2.85;;
8716;SDS011;4395;48.554;8.820;2024-01-06T01:43:17;5.18;;;2.67;;
8716;SDS011;4395;48.554;8.820;2024-01-06T01:45:21;3.78;;;3.30;;
8716;SDS011;4395;48.554;8.820;2024-01-06T01:47:24;3.05;;;2.40;;
8716;SDS011;4395;48.554;8.820;2024-01-06T01:49:27;2.80;;;2.50;;
8716;SDS011;4395;48.554;8.820;2024-01-06T01:51:29;5.20;;;3.42;;
8716;SDS011;4395;48.554;8.820;2024-01-06T01:53:35;5.22;;;3.70;;
8716;SDS011;4395;48.554;8.820;2024-01-06T01:55:38;5.20;;;3.78;;
8716;SDS011;4395;48.554;8.820;2024-01-06T01:57:41;6.00;;;4.13;;
8716;SDS011;4395;48.554;8.820;2024-01-06T01:59:44;4.93;;;3.30;;
8716;SDS011;4395;48.554;8.820;2024-01-06T02:01:49;4.65;;;2.65;;
8716;SDS011;4395;48.554;8.820;2024-01-06T02:03:52;2.75;;;2.47;;
8716;SDS011;4395;48.554;8.820;2024-01-06T02:05:55;3.97;;;3.10;;
8716;SDS011;4395;48.554;8.820;2024-01-06T02:07:58;3.97;;;2.90;;
8716;SDS011;4395;48.554;8.820;2024-01-06T02:10:01;3.97;;;2.72;;
8716;SDS011;4395;48.554;8.820;2024-01-06T02:12:04;12.27;;;7.45;;
8716;SDS011;4395;48.554;8.820;2024-01-06T02:14:07;6.65;;;4.55;;
8716;SDS011;4395;48.554;8.820;2024-01-06T02:16:10;6.22;;;4.05;;
8716;SDS011;4395;48.554;8.820;2024-01-06T02:18:14;4.18;;;2.90;;
8716;SDS011;4395;48.554;8.820;2024-01-06T02:20:17;4.22;;;2.67;;
8716;SDS011;4395;48.554;8.820;2024-01-06T02:22:22;4.50;;;2.63;;
8716;SDS011;4395;48.554;8.820;2024-01-06T02:24:25;3.80;;;2.30;;
8716;SDS011;4395;48.554;8.820;2024-01-06T02:26:28;4.28;;;2.70;;
8716;SDS011;4395;48.554;8.820;2024-01-06T02:28:30;4.55;;;2.88;;
8716;SDS011;4395;48.554;8.820;2024-01-06T02:30:33;3.95;;;2.80;;
8716;SDS011;4395;48.554;8.820;2024-01-06T02:32:35;4.03;;;2.60;;
8716;SDS011;4395;48.554;8.820;2024-01-06T02:34:38;4.07;;;2.45;;
8716;SDS011;4395;48.554;8.820;2024-01-06T02:36:41;3.60;;;1.70;;
8716;SDS011;4395;48.554;8.820;2024-01-06T02:38:46;2.95;;;1.77;;
8716;SDS011;4395;48.554;8.820;2024-01-06T02:40:48;4.10;;;1.80;;
8716;SDS011;4395;48.554;8.820;2024-01-06T02:42:51;2.65;;;1.48;;
8716;SDS011;4395;48.554;8.820;2024-01-06T02:44:54;2.75;;;1.42;;
8716;SDS011;4395;48.554;8.820;2024-01-06T02:46:56;4.00;;;1.55;;
8716;SDS011;4395;48.554;8.820;2024-01-06T02:48:58;4.72;;;1.58;;
8716;SDS011;4395;48.554;8.820;2024-01-06T02:51:01;4.00;;;2.05;;
8716;SDS011;4395;48.554;8.820;2024-01-06T02:53:04;3.47;;;1.77;;
8716;SDS011;4395;48.554;8.820;2024-01-06T02:55:08;2.78;;;1.77;;
8716;SDS011;4395;48.554;8.820;2024-01-06T02:57:11;2.75;;;1.70;;
8716;SDS011;4395;48.554;8.820;2024-01-06T02:59:14;3.15;;;1.40;;
8716;SDS011;4395;48.554;8.820;2024-01-06T03:01:17;2.25;;;1.40;;
8716;SDS011;4395;48.554;8.820;2024-01-06T03:03:20;2.70;;;1.70;;
8716;SDS011;4395;48.554;8.820;2024-01-06T03:05:23;1.63;;;1.33;;
8716;SDS011;4395;48.554;8.820;2024-01-06T03:07:26;5.88;;;4.50;;
8716;SDS011;4395;48.554;8.820;2024-01-06T03:09:28;3.10;;;2.80;;
8716;SDS011;4395;48.554;8.820;2024-01-06T03:11:31;3.90;;;1.95;;
8716;SDS011;4395;48.554;8.820;2024-01-06T03:13:34;4.80;;;1.75;;
8716;SDS011;4395;48.554;8.820;2024-01-06T03:15:37;3.90;;;1.55;;
8716;SDS011;4395;48.554;8.820;2024-01-06T03:17:40;4.00;;;1.83;;
8716;SDS011;4395;48.554;8.820;2024-01-06T03:19:43;12.18;;;8.35;;
8716;SDS011;4395;48.554;8.820;2024-01-06T03:21:45;3.40;;;2.63;;
8716;SDS011;4395;48.554;8.820;2024-01-06T03:23:48;2.45;;;1.60;;
8716;SDS011;4395;48.554;8.820;2024-01-06T03:25:51;3.17;;;1.77;;
8716;SDS011;4395;48.554;8.820;2024-01-06T03:27:55;2.78;;;1.30;;
8716;SDS011;4395;48.554;8.820;2024-01-06T03:29:57;2.03;;;1.38;;
8716;SDS011;4395;48.554;8.820;2024-01-06T03:31:59;3.17;;;1.52;;
8716;SDS011;4395;48.554;8.820;2024-01-06T03:34:01;1.75;;;1.13;;
8716;SDS011;4395;48.554;8.820;2024-01-06T03:36:04;3.95;;;1.80;;
8716;SDS011;4395;48.554;8.820;2024-01-06T03:38:08;3.05;;;1.77;;
8716;SDS011;4395;48.554;8.820;2024-01-06T03:40:11;3.20;;;1.15;;
8716;SDS011;4395;48.554;8.820;2024-01-06T03:42:14;3.35;;;1.40;;
8716;SDS011;4395;48.554;8.820;2024-01-06T03:44:17;1.98;;;1.30;;
8716;SDS011;4395;48.554;8.820;2024-01-06T03:46:20;2.75;;;1.63;;
8716;SDS011;4395;48.554;8.820;2024-01-06T03:48:22;3.28;;;1.50;;
8716;SDS011;4395;48.554;8.820;2024-01-06T03:50:25;3.72;;;1.30;;
8716;SDS011;4395;48.554;8.820;2024-01-06T03:52:28;5.53;;;1.80;;
8716;SDS011;4395;48.554;8.820;2024-01-06T03:54:30;1.65;;;1.17;;
8716;SDS011;4395;48.554;8.820;2024-01-06T03:56:33;3.42;;;1.60;;
8716;SDS011;4395;48.554;8.820;2024-01-06T03:58:35;1.98;;;1.20;;
8716;SDS011;4395;48.554;8.820;2024-01-06T04:00:39;4.80;;;2.72;;
8716;SDS011;4395;48.554;8.820;2024-01-06T04:02:42;3.53;;;2.22;;
8716;SDS011;4395;48.554;8.820;2024-01-06T04:04:45;2.92;;;1.80;;
8716;SDS011;4395;48.554;8.820;2024-01-06T04:06:47;2.50;;;1.67;;
8716;SDS011;4395;48.554;8.820;2024-01-06T04:08:51;3.42;;;1.58;;
8716;SDS011;4395;48.554;8.820;2024-01-06T04:10:56;3.53;;;1.70;;
8716;SDS011;4395;48.554;8.820;2024-01-06T04:12:59;3.25;;;1.38;;
8716;SDS011;4395;48.554;8.820;2024-01-06T04:15:01;1.88;;;1.30;;
8716;SDS011;4395;48.554;8.820;2024-01-06T04:17:06;1.33;;;1.20;;
8716;SDS011;4395;48.554;8.820;2024-01-06T04:19:07;3.03;;;1.42;;
8716;SDS011;4395;48.554;8.820;2024-01-06T04:21:12;2.28;;;1.10;;
8716;SDS011;4395;48.554;8.820;2024-01-06T04:23:15;2.47;;;1.45;;
8716;SDS011;4395;48.554;8.820;2024-01-06T04:25:17;3.80;;;1.50;;
8716;SDS011;4395;48.554;8.820;2024-01-06T04:27:19;4.22;;;2.05;;
8716;SDS011;4395;48.554;8.820;2024-01-06T04:29:22;3.40;;;1.77;;
8716;SDS011;4395;48.554;8.820;2024-01-06T04:31:25;8.05;;;1.48;;
8716;SDS011;4395;48.554;8.820;2024-01-06T04:33:29;5.95;;;1.40;;
8716;SDS011;4395;48.554;8.820;2024-01-06T04:35:32;3.97;;;1.38;;
8716;SDS011;4395;48.554;8.820;2024-01-06T04:37:35;2.92;;;1.77;;
8716;SDS011;4395;48.554;8.820;2024-01-06T04:39:38;5.43;;;1.50;;
8716;SDS011;4395;48.554;8.820;2024-01-06T04:41:41;3.05;;;1.60;;
8716;SDS011;4395;48.554;8.820;2024-01-06T04:43:43;3.92;;;1.50;;
8716;SDS011;4395;48.554;8.820;2024-01-06T04:45:46;4.07;;;1.35;;
8716;SDS011;4395;48.554;8.820;2024-01-06T04:47:49;3.28;;;1.50;;
8716;SDS011;4395;48.554;8.820;2024-01-06T04:49:52;1.58;;;1.20;;
8716;SDS011;4395;48.554;8.820;2024-01-06T04:51:55;3.20;;;1.48;;
8716;SDS011;4395;48.554;8.820;2024-01-06T04:53:58;4.93;;;1.30;;
8716;SDS011;4395;48.554;8.820;2024-01-06T04:56:00;2.55;;;0.98;;
8716;SDS011;4395;48.554;8.820;2024-01-06T04:58:02;3.08;;;1.45;;
8716;SDS011;4395;48.554;8.820;2024-01-06T05:00:06;4.78;;;1.42;;
8716;SDS011;4395;48.554;8.820;2024-01-06T05:02:09;3.03;;;1.40;;
8716;SDS011;4395;48.554;8.820;2024-01-06T05:04:11;1.88;;;1.40;;
8716;SDS011;4395;48.554;8.820;2024-01-06T05:06:15;3.17;;;1.63;;
8716;SDS011;4395;48.554;8.820;2024-01-06T05:08:18;1.90;;;1.42;;
8716;SDS011;4395;48.554;8.820;2024-01-06T05:10:23;2.88;;;1.42;;
8716;SDS011;4395;48.554;8.820;2024-01-06T05:12:26;3.95;;;1.52;;
8716;SDS011;4395;48.554;8.820;2024-01-06T05:14:29;4.07;;;1.60;;
8716;SDS011;4395;48.554;8.820;2024-01-06T05:16:31;7.45;;;2.13;;
8716;SDS011;4395;48.554;8.820;2024-01-06T05:18:34;4.00;;;2.50;;
8716;SDS011;4395;48.554;8.820;2024-01-06T05:20:37;2.75;;;1.80;;
8716;SDS011;4395;48.554;8.820;2024-01-06T05:22:40;2.33;;;1.52;;
8716;SDS011;4395;48.554;8.820;2024-01-06T05:24:43;3.17;;;1.23;;
8716;SDS011;4395;48.554;8.820;2024-01-06T05:26:46;2.03;;;1.80;;
8716;SDS011;4395;48.554;8.820;2024-01-06T05:28:49;1.48;;;1.25;;
8716;SDS011;4395;48.554;8.820;2024-01-06T05:30:51;7.22;;;1.65;;
8716;SDS011;4395;48.554;8.820;2024-01-06T05:32:54;2.47;;;1.50;;
8716;SDS011;4395;48.554;8.820;2024-01-06T05:34:57;6.13;;;1.40;;
8716;SDS011;4395;48.554;8.820;2024-01-06T05:37:00;2.47;;;1.40;;
8716;SDS011;4395;48.554;8.820;2024-01-06T05:39:04;4.10;;;1.50;;
8716;SDS011;4395;48.554;8.820;2024-01-06T05:41:07;3.10;;;1.27;;
8716;SDS011;4395;48.554;8.820;2024-01-06T05:43:09;2.22;;;1.55;;
8716;SDS011;4395;48.554;8.820;2024-01-06T05:45:12;3.78;;;1.25;;
8716;SDS011;4395;48.554;8.820;2024-01-06T05:47:15;2.85;;;1.50;;
8716;SDS011;4395;48.554;8.820;2024-01-06T05:49:18;2.78;;;1.35;;
8716;SDS011;4395;48.554;8.820;2024-01-06T05:51:21;4.15;;;1.83;;
8716;SDS011;4395;48.554;8.820;2024-01-06T05:53:24;4.18;;;1.50;;
8716;SDS011;4395;48.554;8.820;2024-01-06T05:55:28;3.05;;;1.63;;
8716;SDS011;4395;48.554;8.820;2024-01-06T05:57:30;3.15;;;1.67;;
8716;SDS011;4395;48.554;8.820;2024-01-06T05:59:33;4.90;;;1.63;;
8716;SDS011;4395;48.554;8.820;2024-01-06T06:01:37;3.40;;;1.60;;
8716;SDS011;4395;48.554;8.820;2024-01-06T06:03:40;4.25;;;1.65;;
8716;SDS011;4395;48.554;8.820;2024-01-06T06:05:43;1.88;;;1.50;;
8716;SDS011;4395;48.554;8.820;2024-01-06T06:07:46;2.33;;;1.70;;
8716;SDS011;4395;48.554;8.820;2024-01-06T06:09:49;3.75;;;1.45;;
8716;SDS011;4395;48.554;8.820;2024-01-06T06:11:53;3.17;;;1.40;;
8716;SDS011;4395;48.554;8.820;2024-01-06T06:13:56;2.13;;;1.30;;
8716;SDS011;4395;48.554;8.820;2024-01-06T06:15:58;2.85;;;1.40;;
8716;SDS011;4395;48.554;8.820;2024-01-06T06:18:00;2.25;;;1.42;;
8716;SDS011;4395;48.554;8.820;2024-01-06T06:20:04;2.80;;;1.55;;
8716;SDS011;4395;48.554;8.820;2024-01-06T06:22:07;3.33;;;1.67;;
8716;SDS011;4395;48.554;8.820;2024-01-06T06:24:10;2.90;;;1.60;;
8716;SDS011;4395;48.554;8.820;2024-01-06T06:26:13;3.70;;;2.00;;
8716;SDS011;4395;48.554;8.820;2024-01-06T06:28:17;4.53;;;1.70;;
8716;SDS011;4395;48.554;8.820;2024-01-06T06:30:20;3.15;;;1.50;;
8716;SDS011;4395;48.554;8.820;2024-01-06T06:32:23;5.18;;;1.75;;
8716;SDS011;4395;48.554;8.820;2024-01-06T06:34:26;2.53;;;1.52;;
8716;SDS011;4395;48.554;8.820;2024-01-06T06:36:29;2.40;;;1.42;;
8716;SDS011;4395;48.554;8.820;2024-01-06T06:38:32;5.32;;;1.42;;
8716;SDS011;4395;48.554;8.820;2024-01-06T06:40:33;3.03;;;1.55;;
8716;SDS011;4395;48.554;8.820;2024-01-06T06:42:37;3.92;;;2.20;;
8716;SDS011;4395;48.554;8.820;2024-01-06T06:44:41;3.22;;;1.38;;
8716;SDS011;4395;48.554;8.820;2024-01-06T06:46:44;3.83;;;2.85;;
8716;SDS011;4395;48.554;8.820;2024-01-06T06:48:47;5.90;;;2.50;;
8716;SDS011;4395;48.554;8.820;2024-01-06T06:50:49;7.07;;;3.22;;
8716;SDS011;4395;48.554;8.820;2024-01-06T06:52:52;10.65;;;5.63;;
8716;SDS011;4395;48.554;8.820;2024-01-06T06:54:55;5.25;;;3.30;;
8716;SDS011;4395;48.554;8.820;2024-01-06T06:56:59;4.47;;;2.97;;
8716;SDS011;4395;48.554;8.820;2024-01-06T06:59:02;7.65;;;4.85;;
8716;SDS011;4395;48.554;8.820;2024-01-06T07:01:06;13.57;;;8.05;;
8716;SDS011;4395;48.554;8.820;2024-01-06T07:03:09;12.32;;;6.53;;
8716;SDS011;4395;48.554;8.820;2024-01-06T07:05:12;13.43;;;5.68;;
8716;SDS011;4395;48.554;8.820;2024-01-06T07:07:15;12.10;;;6.78;;
8716;SDS011;4395;48.554;8.820;2024-01-06T07:09:17;13.45;;;7.10;;
8716;SDS011;4395;48.554;8.820;2024-01-06T07:11:23;13.95;;;7.55;;
8716;SDS011;4395;48.554;8.820;2024-01-06T07:13:26;23.35;;;9.85;;
8716;SDS011;4395;48.554;8.820;2024-01-06T07:15:28;16.30;;;6.20;;
8716;SDS011;4395;48.554;8.820;2024-01-06T07:17:32;5.15;;;2.72;;
8716;SDS011;4395;48.554;8.820;2024-01-06T07:19:35;6.55;;;3.10;;
8716;SDS011;4395;48.554;8.820;2024-01-06T07:21:38;7.10;;;1.85;;
8716;SDS011;4395;48.554;8.820;2024-01-06T07:23:41;1.88;;;0.98;;
8716;SDS011;4395;48.554;8.820;2024-01-06T07:25:44;6.53;;;1.40;;
8716;SDS011;4395;48.554;8.820;2024-01-06T07:27:47;2.50;;;1.10;;
8716;SDS011;4395;48.554;8.820;2024-01-06T07:29:53;2.15;;;1.00;;
8716;SDS011;4395;48.554;8.820;2024-01-06T07:31:56;1.95;;;0.95;;
8716;SDS011;4395;48.554;8.820;2024-01-06T07:34:00;3.58;;;1.85;;
8716;SDS011;4395;48.554;8.820;2024-01-06T07:36:04;3.42;;;1.60;;
8716;SDS011;4395;48.554;8.820;2024-01-06T07:38:06;2.55;;;2.05;;
8716;SDS011;4395;48.554;8.820;2024-01-06T07:40:09;8.55;;;5.10;;
8716;SDS011;4395;48.554;8.820;2024-01-06T07:42:14;5.28;;;4.78;;
8716;SDS011;4395;48.554;8.820;2024-01-06T07:44:17;6.00;;;4.88;;
8716;SDS011;4395;48.554;8.820;2024-01-06T07:46:23;5.40;;;4.88;;
8716;SDS011;4395;48.554;8.820;2024-01-06T07:48:26;4.47;;;4.07;;
8716;SDS011;4395;48.554;8.820;2024-01-06T07:50:31;3.88;;;3.53;;
8716;SDS011;4395;48.554;8.820;2024-01-06T07:52:32;2.50;;;2.15;;
8716;SDS011;4395;48.554;8.820;2024-01-06T07:54:35;3.58;;;1.33;;
8716;SDS011;4395;48.554;8.820;2024-01-06T07:56:38;3.00;;;1.60;;
8716;SDS011;4395;48.554;8.820;2024-01-06T07:58:41;6.03;;;2.03;;
8716;SDS011;4395;48.554;8.820;2024-01-06T08:00:44;2.05;;;1.55;;
8716;SDS011;4395;48.554;8.820;2024-01-06T08:02:47;3.65;;;1.98;;
8716;SDS011;4395;48.554;8.820;2024-01-06T08:04:49;2.13;;;1.30;;
8716;SDS011;4395;48.554;8.820;2024-01-06T08:06:53;4.68;;;1.38;;
8716;SDS011;4395;48.554;8.820;2024-01-06T08:08:56;3.45;;;1.70;;
8716;SDS011;4395;48.554;8.820;2024-01-06T08:10:59;5.88;;;1.83;;
8716;SDS011;4395;48.554;8.820;2024-01-06T08:13:01;2.30;;;1.67;;
8716;SDS011;4395;48.554;8.820;2024-01-06T08:15:05;2.33;;;1.25;;
8716;SDS011;4395;48.554;8.820;2024-01-06T08:17:09;1.90;;;1.23;;
8716;SDS011;4395;48.554;8.820;2024-01-06T08:19:14;4.38;;;2.40;;
8716;SDS011;4395;48.554;8.820;2024-01-06T08:21:17;2.72;;;1.90;;
8716;SDS011;4395;48.554;8.820;2024-01-06T08:23:21;1.85;;;1.75;;
8716;SDS011;4395;48.554;8.820;2024-01-06T08:25:23;1.50;;;1.38;;
8716;SDS011;4395;48.554;8.820;2024-01-06T08:27:26;1.50;;;1.30;;
8716;SDS011;4395;48.554;8.820;2024-01-06T08:29:29;3.22;;;1.48;;
8716;SDS011;4395;48.554;8.820;2024-01-06T08:31:31;1.63;;;1.30;;
8716;SDS011;4395;48.554;8.820;2024-01-06T08:33:34;1.90;;;1.08;;
8716;SDS011;4395;48.554;8.820;2024-01-06T08:35:37;1.20;;;1.10;;
8716;SDS011;4395;48.554;8.820;2024-01-06T08:37:41;1.00;;;1.00;;
8716;SDS011;4395;48.554;8.820;2024-01-06T08:39:45;1.50;;;1.35;;
8716;SDS011;4395;48.554;8.820;2024-01-06T08:41:48;2.28;;;1.33;;
8716;SDS011;4395;48.554;8.820;2024-01-06T08:43:52;1.92;;;1.02;;
8716;SDS011;4395;48.554;8.820;2024-01-06T08:45:53;2.40;;;1.33;;
8716;SDS011;4395;48.554;8.820;2024-01-06T08:47:56;1.98;;;1.67;;
8716;SDS011;4395;48.554;8.820;2024-01-06T08:49:59;2.42;;;1.33;;
8716;SDS011;4395;48.554;8.820;2024-01-06T08:52:01;3.22;;;1.40;;
8716;SDS011;4395;48.554;8.820;2024-01-06T08:54:05;1.58;;;1.40;;
8716;SDS011;4395;48.554;8.820;2024-01-06T08:56:09;1.58;;;1.30;;
8716;SDS011;4395;48.554;8.820;2024-01-06T08:58:12;3.17;;;1.50;;
8716;SDS011;4395;48.554;8.820;2024-01-06T09:00:15;2.70;;;1.92;;
8716;SDS011;4395;48.554;8.820;2024-01-06T09:02:19;2.47;;;1.25;;
8716;SDS011;4395;48.554;8.820;2024-01-06T09:04:22;1.73;;;1.20;;
8716;SDS011;4395;48.554;8.820;2024-01-06T09:06:25;2.35;;;1.30;;
8716;SDS011;4395;48.554;8.820;2024-01-06T09:08:28;1.92;;;1.63;;
8716;SDS011;4395;48.554;8.820;2024-01-06T09:10:31;1.48;;;1.38;;
8716;SDS011;4395;48.554;8.820;2024-01-06T09:12:35;1.48;;;1.38;;
8716;SDS011;4395;48.554;8.820;2024-01-06T09:14:37;2.38;;;2.00;;
8716;SDS011;4395;48.554;8.820;2024-01-06T09:16:39;1.85;;;1.40;;
8716;SDS011;4395;48.554;8.820;2024-01-06T09:18:42;1.60;;;1.48;;
8716;SDS011;4395;48.554;8.820;2024-01-06T09:20:45;3.00;;;1.60;;
8716;SDS011;4395;48.554;8.820;2024-01-06T09:22:49;1.33;;;1.17;;
8716;SDS011;4395;48.554;8.820;2024-01-06T09:24:51;1.55;;;1.10;;
8716;SDS011;4395;48.554;8.820;2024-01-06T09:26:55;1.58;;;1.10;;
8716;SDS011;4395;48.554;8.820;2024-01-06T09:28:59;1.83;;;1.10;;
8716;SDS011;4395;48.554;8.820;2024-01-06T09:31:01;5.47;;;2.05;;
8716;SDS011;4395;48.554;8.820;2024-01-06T09:33:06;1.52;;;1.30;;
8716;SDS011;4395;48.554;8.820;2024-01-06T09:35:09;2.42;;;1.10;;
8716;SDS011;4395;48.554;8.820;2024-01-06T09:37:12;2.13;;;1.35;;
8716;SDS011;4395;48.554;8.820;2024-01-06T09:39:15;2.88;;;1.08;;
8716;SDS011;4395;48.554;8.820;2024-01-06T09:41:18;1.73;;;1.27;;
8716;SDS011;4395;48.554;8.820;2024-01-06T09:43:23;1.83;;;1.45;;
8716;SDS011;4395;48.554;8.820;2024-01-06T09:45:27;1.40;;;1.20;;
8716;SDS011;4395;48.554;8.820;2024-01-06T09:47:31;1.20;;;1.02;;
8716;SDS011;4395;48.554;8.820;2024-01-06T09:49:35;1.40;;;1.30;;
8716;SDS011;4395;48.554;8.820;2024-01-06T09:51:44;1.50;;;1.40;;
8716;SDS011;4395;48.554;8.820;2024-01-06T09:53:58;2.30;;;1.45;;
8716;SDS011;4395;48.554;8.820;2024-01-06T09:56:02;1.85;;;1.48;;
8716;SDS011;4395;48.554;8.820;2024-01-06T09:58:05;2.42;;;1.20;;
8716;SDS011;4395;48.554;8.820;2024-01-06T10:00:12;1.30;;;1.17;;
8716;SDS011;4395;48.554;8.820;2024-01-06T10:02:16;1.85;;;1.25;;
8716;SDS011;4395;48.554;8.820;2024-01-06T10:04:19;1.75;;;1.10;;
8716;SDS011;4395;48.554;8.820;2024-01-06T10:06:25;1.60;;;1.50;;
8716;SDS011;4395;48.554;8.820;2024-01-06T10:08:28;1.45;;;1.13;;
8716;SDS011;4395;48.554;8.820;2024-01-06T10:10:32;3.03;;;2.63;;
8716;SDS011;4395;48.554;8.820;2024-01-06T10:12:36;2.15;;;1.95;;
8716;SDS011;4395;48.554;8.820;2024-01-06T10:14:40;0.85;;;0.80;;
8716;SDS011;4395;48.554;8.820;2024-01-06T10:16:43;3.45;;;3.15;;
8716;SDS011;4395;48.554;8.820;2024-01-06T10:18:47;2.60;;;1.95;;
8716;SDS011;4395;48.554;8.820;2024-01-06T10:20:54;1.85;;;1.75;;
8716;SDS011;4395;48.554;8.820;2024-01-06T10:22:57;2.25;;;1.73;;
8716;SDS011;4395;48.554;8.820;2024-01-06T10:25:08;2.15;;;2.05;;
8716;SDS011;4395;48.554;8.820;2024-01-06T10:27:12;1.63;;;1.52;;
8716;SDS011;4395;48.554;8.820;2024-01-06T10:29:15;2.33;;;1.95;;
8716;SDS011;4395;48.554;8.820;2024-01-06T10:31:18;2.25;;;1.83;;
8716;SDS011;4395;48.554;8.820;2024-01-06T10:33:20;1.65;;;1.02;;
8716;SDS011;4395;48.554;8.820;2024-01-06T10:35:25;1.90;;;1.80;;
8716;SDS011;4395;48.554;8.820;2024-01-06T10:37:28;2.10;;;1.20;;
8716;SDS011;4395;48.554;8.820;2024-01-06T10:39:31;1.23;;;1.00;;
8716;SDS011;4395;48.554;8.820;2024-01-06T10:41:38;2.22;;;1.45;;
8716;SDS011;4395;48.554;8.820;2024-01-06T10:43:43;1.02;;;0.93;;
8716;SDS011;4395;48.554;8.820;2024-01-06T10:45:46;1.85;;;1.55;;
8716;SDS011;4395;48.554;8.820;2024-01-06T10:47:49;1.45;;;1.35;;
8716;SDS011;4395;48.554;8.820;2024-01-06T10:49:52;1.90;;;1.10;;
8716;SDS011;4395;48.554;8.820;2024-01-06T10:52:04;1.67;;;1.20;;
8716;SDS011;4395;48.554;8.820;2024-01-06T10:54:08;0.75;;;0.75;;
8716;SDS011;4395;48.554;8.820;2024-01-06T10:56:12;1.10;;;0.90;;
8716;SDS011;4395;48.554;8.820;2024-01-06T10:58:14;1.30;;;1.20;;
8716;SDS011;4395;48.554;8.820;2024-01-06T11:00:19;0.88;;;0.88;;
8716;SDS011;4395;48.554;8.820;2024-01-06T11:02:22;0.90;;;0.90;;
8716;SDS011;4395;48.554;8.820;2024-01-06T11:04:26;2.15;;;1.02;;
8716;SDS011;4395;48.554;8.820;2024-01-06T11:06:30;1.10;;;1.00;;
8716;SDS011;4395;48.554;8.820;2024-01-06T11:08:40;1.42;;;0.80;;
8716;SDS011;4395;48.554;8.820;2024-01-06T11:10:50;1.33;;;1.20;;
8716;SDS011;4395;48.554;8.820;2024-01-06T11:13:10;1.20;;;1.10;;
8716;SDS011;4395;48.554;8.820;2024-01-06T11:17:49;1.60;;;1.42;;
8716;SDS011;4395;48.554;8.820;2024-01-06T11:19:59;1.70;;;1.38;;
8716;SDS011;4395;48.554;8.820;2024-01-06T11:22:20;1.98;;;1.00;;
8716;SDS011;4395;48.554;8.820;2024-01-06T11:24:27;0.85;;;0.85;;
8716;SDS011;4395;48.554;8.820;2024-01-06T11:26:41;1.30;;;1.20;;
8716;SDS011;4395;48.554;8.820;2024-01-06T11:28:45;1.60;;;1.30;;
8716;SDS011;4395;48.554;8.820;2024-01-06T11:30:48;1.70;;;1.30;;
8716;SDS011;4395;48.554;8.820;2024-01-06T11:33:08;7.15;;;3.60;;
8716;SDS011;4395;48.554;8.820;2024-01-06T11:35:13;3.17;;;2.15;;
8716;SDS011;4395;48.554;8.820;2024-01-06T11:37:18;2.90;;;2.17;;
8716;SDS011;4395;48.554;8.820;2024-01-06T11:39:35;2.15;;;1.63;;
8716;SDS011;4395;48.554;8.820;2024-01-06T11:41:47;2.25;;;1.85;;
8716;SDS011;4395;48.554;8.820;2024-01-06T11:43:51;1.08;;;1.00;;
8716;SDS011;4395;48.554;8.820;2024-01-06T11:45:53;1.50;;;1.40;;
8716;SDS011;4395;48.554;8.820;2024-01-06T11:48:02;1.63;;;1.50;;
8716;SDS011;4395;48.554;8.820;2024-01-06T11:50:07;2.55;;;1.60;;
8716;SDS011;4395;48.554;8.820;2024-01-06T11:52:09;2.50;;;1.50;;
8716;SDS011;4395;48.554;8.820;2024-01-06T11:54:12;1.77;;;1.60;;
8716;SDS011;4395;48.554;8.820;2024-01-06T11:56:17;2.28;;;2.08;;
8716;SDS011;4395;48.554;8.820;2024-01-06T11:58:23;1.60;;;1.50;;
8716;SDS011;4395;48.554;8.820;2024-01-06T12:00:27;1.50;;;1.40;;
8716;SDS011;4395;48.554;8.820;2024-01-06T12:02:30;1.45;;;1.35;;
8716;SDS011;4395;48.554;8.820;2024-01-06T12:04:33;2.60;;;1.67;;
8716;SDS011;4395;48.554;8.820;2024-01-06T12:06:35;1.48;;;1.38;;
8716;SDS011;4395;48.554;8.820;2024-01-06T12:08:38;1.55;;;1.45;;
8716;SDS011;4395;48.554;8.820;2024-01-06T12:10:41;2.13;;;1.58;;
8716;SDS011;4395;48.554;8.820;2024-01-06T12:12:55;2.25;;;1.90;;
8716;SDS011;4395;48.554;8.820;2024-01-06T12:15:00;2.60;;;2.40;;
8716;SDS011;4395;48.554;8.820;2024-01-06T12:17:03;4.13;;;3.40;;
8716;SDS011;4395;48.554;8.820;2024-01-06T12:19:06;28.98;;;16.27;;
8716;SDS011;4395;48.554;8.820;2024-01-06T12:21:09;8.52;;;5.07;;
8716;SDS011;4395;48.554;8.820;2024-01-06T12:23:12;4.13;;;3.08;;
8716;SDS011;4395;48.554;8.820;2024-01-06T12:25:26;1.80;;;1.40;;
8716;SDS011;4395;48.554;8.820;2024-01-06T12:27:30;3.00;;;2.33;;
8716;SDS011;4395;48.554;8.820;2024-01-06T12:29:34;1.52;;;1.42;;
8716;SDS011;4395;48.554;8.820;2024-01-06T12:31:40;1.63;;;1.52;;
8716;SDS011;4395;48.554;8.820;2024-01-06T12:33:46;2.00;;;1.60;;
8716;SDS011;4395;48.554;8.820;2024-01-06T12:35:49;1.35;;;0.90;;
8716;SDS011;4395;48.554;8.820;2024-01-06T12:37:52;0.77;;;0.70;;
8716;SDS011;4395;48.554;8.820;2024-01-06T12:39:56;1.02;;;0.93;;
8716;SDS011;4395;48.554;8.820;2024-01-06T12:42:00;2.53;;;1.88;;
8716;SDS011;4395;48.554;8.820;2024-01-06T12:44:03;1.08;;;0.70;;
8716;SDS011;4395;48.554;8.820;2024-01-06T12:46:08;0.90;;;0.90;;
8716;SDS011;4395;48.554;8.820;2024-01-06T12:48:11;1.77;;;1.42;;
8716;SDS011;4395;48.554;8.820;2024-01-06T12:50:14;2.13;;;1.30;;